createdAt,value
2018-03-22T00:00:08.870Z,6.2
2018-03-22T00:00:35.004Z,6.14
2018-03-22T00:01:01.143Z,6.14
2018-03-22T00:01:27.282Z,6.12
2018-03-22T00:01:53.443Z,6.11
2018-03-22T00:02:19.571Z,6.09
2018-03-22T00:02:45.703Z,6.08
2018-03-22T00:03:11.842Z,6.07
2018-03-22T00:03:37.972Z,6.19
2018-03-22T00:04:04.116Z,6.2
2018-03-22T00:04:30.270Z,6.19
2018-03-22T00:04:56.409Z,6.14
2018-03-22T00:05:22.555Z,6.2
2018-03-22T00:05:48.688Z,6.26
2018-03-22T00:06:14.820Z,6.17
2018-03-22T00:06:41.011Z,6.22
2018-03-22T00:07:07.174Z,6.31
2018-03-22T00:07:33.308Z,6.2
2018-03-22T00:07:59.439Z,6.17
2018-03-22T00:08:25.572Z,6.22
2018-03-22T00:08:51.706Z,6.31
2018-03-22T00:09:17.840Z,6.14
2018-03-22T00:09:43.984Z,6.22
2018-03-22T00:10:10.118Z,6.26
2018-03-22T00:10:36.265Z,6.22
2018-03-22T00:11:02.448Z,6.24
2018-03-22T00:11:28.585Z,6.24
2018-03-22T00:11:54.717Z,6.28
2018-03-22T00:12:20.859Z,6.28
2018-03-22T00:12:46.993Z,6.14
2018-03-22T00:13:13.129Z,6.2
2018-03-22T00:13:39.262Z,6.26
2018-03-22T00:14:05.398Z,6.2
2018-03-22T00:14:31.539Z,6.28
2018-03-22T00:14:57.705Z,6.2
2018-03-22T00:15:23.835Z,6.19
2018-03-22T00:15:49.972Z,6.17
2018-03-22T00:16:16.114Z,6.16
2018-03-22T00:16:42.254Z,6.22
2018-03-22T00:17:08.418Z,6.12
2018-03-22T00:17:34.554Z,6.17
2018-03-22T00:18:00.688Z,6.19
2018-03-22T00:18:26.853Z,6.14
2018-03-22T00:18:52.986Z,6.19
2018-03-22T00:19:19.125Z,6.12
2018-03-22T00:19:45.263Z,6.17
2018-03-22T00:20:11.393Z,6.12
2018-03-22T00:20:37.531Z,6.2
2018-03-22T00:21:03.661Z,6.19
2018-03-22T00:21:29.799Z,6.14
2018-03-22T00:21:55.945Z,6.12
2018-03-22T00:22:22.079Z,6.22
2018-03-22T00:22:48.211Z,6.24
2018-03-22T00:23:14.352Z,6.26
2018-03-22T00:23:40.492Z,6.28
2018-03-22T00:24:06.627Z,6.27
2018-03-22T00:24:32.759Z,6.16
2018-03-22T00:24:58.893Z,6.16
2018-03-22T00:25:25.038Z,6.24
2018-03-22T00:25:51.170Z,6.2
2018-03-22T00:26:17.332Z,6.16
2018-03-22T00:26:43.479Z,6.14
2018-03-22T00:27:09.640Z,6.22
2018-03-22T00:27:35.794Z,6.2
2018-03-22T00:28:01.934Z,6.24
2018-03-22T00:28:28.069Z,6.2
2018-03-22T00:28:54.198Z,6.28
2018-03-22T00:29:20.337Z,6.22
2018-03-22T00:29:46.473Z,6.3
2018-03-22T00:30:12.608Z,6.27
2018-03-22T00:30:38.745Z,6.3
2018-03-22T00:31:04.880Z,6.27
2018-03-22T00:31:31.018Z,6.3
2018-03-22T00:31:57.162Z,6.3
2018-03-22T00:32:23.299Z,6.19
2018-03-22T00:32:49.433Z,6.27
2018-03-22T00:33:15.571Z,6.19
2018-03-22T00:33:41.695Z,6.28
2018-03-22T00:34:07.836Z,6.12
2018-03-22T00:34:33.990Z,6.28
2018-03-22T00:35:00.100Z,6.17
2018-03-22T00:35:26.264Z,6.16
2018-03-22T00:35:52.396Z,6.2
2018-03-22T00:36:18.531Z,6.19
2018-03-22T00:36:44.671Z,6.16
2018-03-22T00:37:10.805Z,6.17
2018-03-22T00:37:36.943Z,6.19
2018-03-22T00:38:03.076Z,6.16
2018-03-22T00:38:29.214Z,6.16
2018-03-22T00:38:55.350Z,6.16
2018-03-22T00:39:21.481Z,6.11
2018-03-22T00:39:47.619Z,6.17
2018-03-22T00:40:13.759Z,6.19
2018-03-22T00:40:39.923Z,6.24
2018-03-22T00:41:06.059Z,6.14
2018-03-22T00:41:32.196Z,6.2
2018-03-22T00:41:58.329Z,6.16
2018-03-22T00:42:24.464Z,6.24
2018-03-22T00:42:50.601Z,6.19
2018-03-22T00:43:16.738Z,6.14
2018-03-22T00:43:42.877Z,6.17
2018-03-22T00:44:09.011Z,6.2
2018-03-22T00:44:35.151Z,6.22
2018-03-22T00:45:01.279Z,6.24
2018-03-22T00:45:27.416Z,6.28
2018-03-22T00:45:53.571Z,6.16
2018-03-22T00:46:19.708Z,6.16
2018-03-22T00:46:45.866Z,6.22
2018-03-22T00:47:12.006Z,6.22
2018-03-22T00:47:38.164Z,6.28
2018-03-22T00:48:04.305Z,6.2
2018-03-22T00:48:30.437Z,6.24
2018-03-22T00:48:56.573Z,6.2
2018-03-22T00:49:22.704Z,6.14
2018-03-22T00:49:48.843Z,6.14
2018-03-22T00:50:14.977Z,6.11
2018-03-22T00:50:41.163Z,6.17
2018-03-22T00:51:07.297Z,6.19
2018-03-22T00:51:33.428Z,6.16
2018-03-22T00:51:59.565Z,6.14
2018-03-22T00:52:25.696Z,6.14
2018-03-22T00:52:51.834Z,6.14
2018-03-22T00:53:17.974Z,6.16
2018-03-22T00:53:44.102Z,6.17
2018-03-22T00:54:10.261Z,6.19
2018-03-22T00:54:36.403Z,6.11
2018-03-22T00:55:02.562Z,6.14
2018-03-22T00:55:28.722Z,6.2
2018-03-22T00:55:54.856Z,6.17
2018-03-22T00:56:20.993Z,6.14
2018-03-22T00:56:47.122Z,6.24
2018-03-22T00:57:13.260Z,6.2
2018-03-22T00:57:39.394Z,6.14
2018-03-22T00:58:05.533Z,6.16
2018-03-22T00:58:31.661Z,6.16
2018-03-22T00:58:57.802Z,6.16
2018-03-22T00:59:23.961Z,6.2
2018-03-22T00:59:50.095Z,6.17
2018-03-22T01:00:16.221Z,6.08
2018-03-22T01:00:42.364Z,6.17
2018-03-22T01:01:08.500Z,6.17
2018-03-22T01:01:34.677Z,6.16
2018-03-22T01:02:00.769Z,6.08
2018-03-22T01:02:26.914Z,6.09
2018-03-22T01:02:53.071Z,6.05
2018-03-22T01:03:19.212Z,6.08
2018-03-22T01:03:45.371Z,6.12
2018-03-22T01:04:11.528Z,6.07
2018-03-22T01:04:37.660Z,6.07
2018-03-22T01:05:03.804Z,6.05
2018-03-22T01:05:29.938Z,6.11
2018-03-22T01:05:56.103Z,6.05
2018-03-22T01:06:22.237Z,6.04
2018-03-22T01:06:48.398Z,6.09
2018-03-22T01:07:14.559Z,6.04
2018-03-22T01:07:40.695Z,6.14
2018-03-22T01:08:06.838Z,6.07
2018-03-22T01:08:32.969Z,6.12
2018-03-22T01:08:59.105Z,6.04
2018-03-22T01:09:25.265Z,6.05
2018-03-22T01:09:51.407Z,6.04
2018-03-22T01:10:17.541Z,6.01
2018-03-22T01:10:43.704Z,6.05
2018-03-22T01:11:09.822Z,5.98
2018-03-22T01:11:35.952Z,6.04
2018-03-22T01:12:02.098Z,6.04
2018-03-22T01:12:28.231Z,6.09
2018-03-22T01:12:54.371Z,6.05
2018-03-22T01:13:20.527Z,6.05
2018-03-22T01:13:46.665Z,5.99
2018-03-22T01:14:12.816Z,6.04
2018-03-22T01:14:38.952Z,6.02
2018-03-22T01:15:05.094Z,5.99
2018-03-22T01:15:31.235Z,6.07
2018-03-22T01:15:57.368Z,6.01
2018-03-22T01:16:23.507Z,6.07
2018-03-22T01:16:49.663Z,6.02
2018-03-22T01:17:15.821Z,6.01
2018-03-22T01:17:41.956Z,5.98
2018-03-22T01:18:08.151Z,5.94
2018-03-22T01:18:34.289Z,6.05
2018-03-22T01:19:00.422Z,5.97
2018-03-22T01:19:26.583Z,5.97
2018-03-22T01:19:52.715Z,5.91
2018-03-22T01:20:18.848Z,5.93
2018-03-22T01:20:44.984Z,5.98
2018-03-22T01:21:11.124Z,6.01
2018-03-22T01:21:37.253Z,5.99
2018-03-22T01:22:03.417Z,6.02
2018-03-22T01:22:29.558Z,5.94
2018-03-22T01:22:55.692Z,5.99
2018-03-22T01:23:21.829Z,5.91
2018-03-22T01:23:47.965Z,6.05
2018-03-22T01:24:14.108Z,6.02
2018-03-22T01:24:40.243Z,5.99
2018-03-22T01:25:06.384Z,5.94
2018-03-22T01:25:32.512Z,6.04
2018-03-22T01:25:58.648Z,5.94
2018-03-22T01:26:24.786Z,5.94
2018-03-22T01:26:50.942Z,6.01
2018-03-22T01:27:17.054Z,5.97
2018-03-22T01:27:43.194Z,6.01
2018-03-22T01:28:09.349Z,5.93
2018-03-22T01:28:35.484Z,6.01
2018-03-22T01:29:01.624Z,5.94
2018-03-22T01:29:27.757Z,5.94
2018-03-22T01:29:53.921Z,5.94
2018-03-22T01:30:20.055Z,5.94
2018-03-22T01:30:48.613Z,5.94
2018-03-22T01:31:14.772Z,5.93
2018-03-22T01:31:40.931Z,6.01
2018-03-22T01:32:07.068Z,5.91
2018-03-22T01:32:33.205Z,5.93
2018-03-22T01:32:59.343Z,5.89
2018-03-22T01:33:25.497Z,5.98
2018-03-22T01:33:51.639Z,6.04
2018-03-22T01:34:17.788Z,5.9
2018-03-22T01:34:43.925Z,5.86
2018-03-22T01:35:10.063Z,5.89
2018-03-22T01:35:36.205Z,5.91
2018-03-22T01:36:02.362Z,5.94
2018-03-22T01:36:28.497Z,5.89
2018-03-22T01:36:54.634Z,5.98
2018-03-22T01:37:20.796Z,5.9
2018-03-22T01:37:46.928Z,5.91
2018-03-22T01:38:13.067Z,5.91
2018-03-22T01:38:39.196Z,5.9
2018-03-22T01:39:05.335Z,5.91
2018-03-22T01:39:31.473Z,5.87
2018-03-22T01:39:57.606Z,5.84
2018-03-22T01:40:23.768Z,5.94
2018-03-22T01:40:49.900Z,5.94
2018-03-22T01:41:16.036Z,5.86
2018-03-22T01:41:42.174Z,5.9
2018-03-22T01:42:08.303Z,5.87
2018-03-22T01:42:34.447Z,5.89
2018-03-22T01:43:00.575Z,5.99
2018-03-22T01:43:26.714Z,6.01
2018-03-22T01:43:52.848Z,5.94
2018-03-22T01:44:19.017Z,5.98
2018-03-22T01:44:45.146Z,6.02
2018-03-22T01:45:11.293Z,5.99
2018-03-22T01:45:37.425Z,5.91
2018-03-22T01:46:03.562Z,6.01
2018-03-22T01:46:29.702Z,6.02
2018-03-22T01:46:55.835Z,5.91
2018-03-22T01:47:21.975Z,6.01
2018-03-22T01:47:48.103Z,5.94
2018-03-22T01:48:14.275Z,6.01
2018-03-22T01:48:40.416Z,6.01
2018-03-22T01:49:06.542Z,5.94
2018-03-22T01:49:32.699Z,6.01
2018-03-22T01:49:58.835Z,5.89
2018-03-22T01:50:24.971Z,5.98
2018-03-22T01:50:51.137Z,5.93
2018-03-22T01:51:17.269Z,5.93
2018-03-22T01:51:43.408Z,5.94
2018-03-22T01:52:09.568Z,5.89
2018-03-22T01:52:35.702Z,5.93
2018-03-22T01:53:01.838Z,5.97
2018-03-22T01:53:27.975Z,5.94
2018-03-22T01:53:54.107Z,5.91
2018-03-22T01:54:20.245Z,5.9
2018-03-22T01:54:46.377Z,5.93
2018-03-22T01:55:12.518Z,5.86
2018-03-22T01:55:38.656Z,5.91
2018-03-22T01:56:04.787Z,5.9
2018-03-22T01:56:30.952Z,5.89
2018-03-22T01:56:57.085Z,5.97
2018-03-22T01:57:23.226Z,5.94
2018-03-22T01:57:49.358Z,6.01
2018-03-22T01:58:15.493Z,5.91
2018-03-22T01:58:41.651Z,5.9
2018-03-22T01:59:07.810Z,5.91
2018-03-22T01:59:33.941Z,5.94
2018-03-22T02:00:00.074Z,5.89
2018-03-22T02:00:26.218Z,6.08
2018-03-22T02:00:52.379Z,6.04
2018-03-22T02:01:18.547Z,6.02
2018-03-22T02:01:44.720Z,5.97
2018-03-22T02:02:10.841Z,5.97
2018-03-22T02:02:36.978Z,5.89
2018-03-22T02:03:03.106Z,5.97
2018-03-22T02:03:29.241Z,5.99
2018-03-22T02:03:55.407Z,6.01
2018-03-22T02:04:21.561Z,6.07
2018-03-22T02:04:47.692Z,5.98
2018-03-22T02:05:13.825Z,6.02
2018-03-22T02:05:39.956Z,5.98
2018-03-22T02:06:06.090Z,5.97
2018-03-22T02:06:32.226Z,6.04
2018-03-22T02:06:58.363Z,6.07
2018-03-22T02:07:24.515Z,6.02
2018-03-22T02:07:50.652Z,6.04
2018-03-22T02:08:16.796Z,6.08
2018-03-22T02:08:42.922Z,6.08
2018-03-22T02:09:09.061Z,6.05
2018-03-22T02:09:35.198Z,6.07
2018-03-22T02:10:01.357Z,6.07
2018-03-22T02:10:27.508Z,6.11
2018-03-22T02:10:53.648Z,6.12
2018-03-22T02:11:19.805Z,6.19
2018-03-22T02:11:45.941Z,6.24
2018-03-22T02:12:12.073Z,6.14
2018-03-22T02:12:38.209Z,6.19
2018-03-22T02:13:04.375Z,6.17
2018-03-22T02:13:30.514Z,6.17
2018-03-22T02:13:56.644Z,6.2
2018-03-22T02:14:22.804Z,6.19
2018-03-22T02:14:48.939Z,6.2
2018-03-22T02:15:15.070Z,6.11
2018-03-22T02:15:41.210Z,6.19
2018-03-22T02:16:07.343Z,6.24
2018-03-22T02:16:33.504Z,6.17
2018-03-22T02:16:59.639Z,6.28
2018-03-22T02:17:25.803Z,6.35
2018-03-22T02:17:51.938Z,6.31
2018-03-22T02:18:18.072Z,6.28
2018-03-22T02:18:44.202Z,6.24
2018-03-22T02:19:10.364Z,6.24
2018-03-22T02:19:36.493Z,6.22
2018-03-22T02:20:02.633Z,6.17
2018-03-22T02:20:28.773Z,6.31
2018-03-22T02:20:54.910Z,6.2
2018-03-22T02:21:21.037Z,6.24
2018-03-22T02:21:47.176Z,6.22
2018-03-22T02:22:13.343Z,6.26
2018-03-22T02:22:39.478Z,6.35
2018-03-22T02:23:05.633Z,6.24
2018-03-22T02:23:31.796Z,6.24
2018-03-22T02:23:57.924Z,6.27
2018-03-22T02:24:24.089Z,6.31
2018-03-22T02:24:50.269Z,6.31
2018-03-22T02:25:16.416Z,6.3
2018-03-22T02:25:42.580Z,6.27
2018-03-22T02:26:08.719Z,6.22
2018-03-22T02:26:34.877Z,6.28
2018-03-22T02:27:01.018Z,6.31
2018-03-22T02:27:27.156Z,6.31
2018-03-22T02:27:53.291Z,6.26
2018-03-22T02:28:19.428Z,6.24
2018-03-22T02:28:45.566Z,6.31
2018-03-22T02:29:11.724Z,6.26
2018-03-22T02:29:37.862Z,6.31
2018-03-22T02:30:03.998Z,6.35
2018-03-22T02:30:30.132Z,6.24
2018-03-22T02:30:56.264Z,6.26
2018-03-22T02:31:22.399Z,6.26
2018-03-22T02:31:48.535Z,6.28
2018-03-22T02:32:14.670Z,6.22
2018-03-22T02:32:40.853Z,6.28
2018-03-22T02:33:06.985Z,6.24
2018-03-22T02:33:33.129Z,6.26
2018-03-22T02:33:59.263Z,6.3
2018-03-22T02:34:25.392Z,6.24
2018-03-22T02:34:51.532Z,6.27
2018-03-22T02:35:17.666Z,6.3
2018-03-22T02:35:43.851Z,6.22
2018-03-22T02:36:09.993Z,6.26
2018-03-22T02:36:36.125Z,6.22
2018-03-22T02:37:02.260Z,6.19
2018-03-22T02:37:28.393Z,6.24
2018-03-22T02:37:54.520Z,6.19
2018-03-22T02:38:20.658Z,6.27
2018-03-22T02:38:46.800Z,6.2
2018-03-22T02:39:12.933Z,6.27
2018-03-22T02:39:39.117Z,6.26
2018-03-22T02:40:05.200Z,6.27
2018-03-22T02:40:31.341Z,6.27
2018-03-22T02:40:57.498Z,6.19
2018-03-22T02:41:23.633Z,6.19
2018-03-22T02:41:49.769Z,6.2
2018-03-22T02:42:15.908Z,6.16
2018-03-22T02:42:42.093Z,6.2
2018-03-22T02:43:08.231Z,6.16
2018-03-22T02:43:34.366Z,6.17
2018-03-22T02:44:00.500Z,6.24
2018-03-22T02:44:26.640Z,6.16
2018-03-22T02:44:52.766Z,6.16
2018-03-22T02:45:18.903Z,6.17
2018-03-22T02:45:45.035Z,6.19
2018-03-22T02:46:11.174Z,6.17
2018-03-22T02:46:37.305Z,6.16
2018-03-22T02:47:03.489Z,6.2
2018-03-22T02:47:29.657Z,6.2
2018-03-22T02:47:55.822Z,6.2
2018-03-22T02:48:22.004Z,6.19
2018-03-22T02:48:48.156Z,6.22
2018-03-22T02:49:14.290Z,6.12
2018-03-22T02:49:40.425Z,6.17
2018-03-22T02:50:06.565Z,6.17
2018-03-22T02:50:32.701Z,6.17
2018-03-22T02:50:58.844Z,6.17
2018-03-22T02:51:24.969Z,6.17
2018-03-22T02:51:51.112Z,6.17
2018-03-22T02:52:17.240Z,6.16
2018-03-22T02:52:43.391Z,6.19
2018-03-22T02:53:09.530Z,6.22
2018-03-22T02:53:35.671Z,6.24
2018-03-22T02:54:01.826Z,6.22
2018-03-22T02:54:27.989Z,6.2
2018-03-22T02:54:54.117Z,6.14
2018-03-22T02:55:20.249Z,6.19
2018-03-22T02:55:46.380Z,6.3
2018-03-22T02:56:12.523Z,6.27
2018-03-22T02:56:38.657Z,6.19
2018-03-22T02:57:04.796Z,6.2
2018-03-22T02:57:30.955Z,6.3
2018-03-22T02:57:57.110Z,6.27
2018-03-22T02:58:23.250Z,6.19
2018-03-22T02:58:49.411Z,6.26
2018-03-22T02:59:15.545Z,6.17
2018-03-22T02:59:41.677Z,6.27
2018-03-22T03:00:07.812Z,6.17
2018-03-22T03:00:33.974Z,6.28
2018-03-22T03:01:00.087Z,6.22
2018-03-22T03:01:26.215Z,6.19
2018-03-22T03:01:52.355Z,6.28
2018-03-22T03:02:18.497Z,6.24
2018-03-22T03:02:44.633Z,6.27
2018-03-22T03:03:10.782Z,6.26
2018-03-22T03:03:36.924Z,6.28
2018-03-22T03:04:03.062Z,6.24
2018-03-22T03:04:29.205Z,6.24
2018-03-22T03:04:55.337Z,6.28
2018-03-22T03:05:21.499Z,6.19
2018-03-22T03:05:47.633Z,6.19
2018-03-22T03:06:13.770Z,6.17
2018-03-22T03:06:39.906Z,6.14
2018-03-22T03:07:06.039Z,6.26
2018-03-22T03:07:32.204Z,6.22
2018-03-22T03:07:58.357Z,6.16
2018-03-22T03:08:24.500Z,6.19
2018-03-22T03:08:50.636Z,6.26
2018-03-22T03:09:16.787Z,6.26
2018-03-22T03:09:42.927Z,6.14
2018-03-22T03:10:09.064Z,6.12
2018-03-22T03:10:35.202Z,6.22
2018-03-22T03:11:01.329Z,6.22
2018-03-22T03:11:27.469Z,6.19
2018-03-22T03:11:53.613Z,6.16
2018-03-22T03:12:19.749Z,6.14
2018-03-22T03:12:45.884Z,6.17
2018-03-22T03:13:12.020Z,6.07
2018-03-22T03:13:38.156Z,6.09
2018-03-22T03:14:04.289Z,6.11
2018-03-22T03:14:30.430Z,6.04
2018-03-22T03:14:56.564Z,6.02
2018-03-22T03:15:22.695Z,6.05
2018-03-22T03:15:48.838Z,6.08
2018-03-22T03:16:14.979Z,6.09
2018-03-22T03:16:41.114Z,6.11
2018-03-22T03:17:07.250Z,6.11
2018-03-22T03:17:33.382Z,6.07
2018-03-22T03:17:59.522Z,6.11
2018-03-22T03:18:25.673Z,6.07
2018-03-22T03:18:51.815Z,6.11
2018-03-22T03:19:17.968Z,6.09
2018-03-22T03:19:44.104Z,6.07
2018-03-22T03:20:10.239Z,6.11
2018-03-22T03:20:36.375Z,6.14
2018-03-22T03:21:02.505Z,6.07
2018-03-22T03:21:28.644Z,6.12
2018-03-22T03:21:54.780Z,6.19
2018-03-22T03:22:20.917Z,6.2
2018-03-22T03:22:47.043Z,6.22
2018-03-22T03:23:13.173Z,6.24
2018-03-22T03:23:39.317Z,6.22
2018-03-22T03:24:05.454Z,6.17
2018-03-22T03:24:31.584Z,6.16
2018-03-22T03:24:57.723Z,6.16
2018-03-22T03:25:23.852Z,6.16
2018-03-22T03:25:50.006Z,6.19
2018-03-22T03:26:16.143Z,6.17
2018-03-22T03:26:42.282Z,6.14
2018-03-22T03:27:08.421Z,6.14
2018-03-22T03:27:34.582Z,6.16
2018-03-22T03:28:00.725Z,6.16
2018-03-22T03:28:26.855Z,6.16
2018-03-22T03:28:52.991Z,6.12
2018-03-22T03:29:19.124Z,6.05
2018-03-22T03:29:45.260Z,6.08
2018-03-22T03:30:11.423Z,6.08
2018-03-22T03:30:37.560Z,6.07
2018-03-22T03:31:03.702Z,6.04
2018-03-22T03:31:29.834Z,6.08
2018-03-22T03:31:55.974Z,6.02
2018-03-22T03:32:22.108Z,6.09
2018-03-22T03:32:48.258Z,6.07
2018-03-22T03:33:14.397Z,6.08
2018-03-22T03:33:40.531Z,6.09
2018-03-22T03:34:06.695Z,6.14
2018-03-22T03:34:32.828Z,6.07
2018-03-22T03:34:58.966Z,6.07
2018-03-22T03:35:25.100Z,6.14
2018-03-22T03:35:51.236Z,6.07
2018-03-22T03:36:17.402Z,6.09
2018-03-22T03:36:43.536Z,6.05
2018-03-22T03:37:09.669Z,6.05
2018-03-22T03:37:35.806Z,6.12
2018-03-22T03:38:01.941Z,6.09
2018-03-22T03:38:28.087Z,6.08
2018-03-22T03:38:54.244Z,6.04
2018-03-22T03:39:20.381Z,6.07
2018-03-22T03:39:46.544Z,6.01
2018-03-22T03:40:12.678Z,6.12
2018-03-22T03:40:38.809Z,6.07
2018-03-22T03:41:04.941Z,6.02
2018-03-22T03:41:31.082Z,6.02
2018-03-22T03:41:57.212Z,6.01
2018-03-22T03:42:23.372Z,5.99
2018-03-22T03:42:49.533Z,6.05
2018-03-22T03:43:15.665Z,5.97
2018-03-22T03:43:41.804Z,6.05
2018-03-22T03:44:07.931Z,5.99
2018-03-22T03:44:34.070Z,6.01
2018-03-22T03:45:00.241Z,6.04
2018-03-22T03:45:26.375Z,5.97
2018-03-22T03:45:52.505Z,6.04
2018-03-22T03:46:18.648Z,5.98
2018-03-22T03:46:44.778Z,5.93
2018-03-22T03:47:10.917Z,6.01
2018-03-22T03:47:37.072Z,5.98
2018-03-22T03:48:03.232Z,6.01
2018-03-22T03:48:29.393Z,5.99
2018-03-22T03:48:55.528Z,5.93
2018-03-22T03:49:21.663Z,5.98
2018-03-22T03:49:47.796Z,5.87
2018-03-22T03:50:13.929Z,5.93
2018-03-22T03:50:40.100Z,5.93
2018-03-22T03:51:06.209Z,5.89
2018-03-22T03:51:32.338Z,5.89
2018-03-22T03:51:58.483Z,5.87
2018-03-22T03:52:24.601Z,5.97
2018-03-22T03:52:50.738Z,5.9
2018-03-22T03:53:16.896Z,5.89
2018-03-22T03:53:43.031Z,5.93
2018-03-22T03:54:09.174Z,5.91
2018-03-22T03:54:35.303Z,5.9
2018-03-22T03:55:01.439Z,5.93
2018-03-22T03:55:27.581Z,5.97
2018-03-22T03:55:53.705Z,5.87
2018-03-22T03:56:19.843Z,5.93
2018-03-22T03:56:45.978Z,5.89
2018-03-22T03:57:12.114Z,5.89
2018-03-22T03:57:38.277Z,5.82
2018-03-22T03:58:04.448Z,5.86
2018-03-22T03:58:30.627Z,5.83
2018-03-22T03:58:56.756Z,5.87
2018-03-22T03:59:22.894Z,5.99
2018-03-22T03:59:49.038Z,5.9
2018-03-22T04:00:15.168Z,5.9
2018-03-22T04:00:41.330Z,5.9
2018-03-22T04:01:07.464Z,5.93
2018-03-22T04:01:33.600Z,5.91
2018-03-22T04:01:59.734Z,5.8
2018-03-22T04:02:25.886Z,5.75
2018-03-22T04:02:52.042Z,5.79
2018-03-22T04:03:18.182Z,5.73
2018-03-22T04:03:44.311Z,5.8
2018-03-22T04:04:10.448Z,5.82
2018-03-22T04:04:36.607Z,5.8
2018-03-22T04:05:02.748Z,5.79
2018-03-22T04:05:28.904Z,5.71
2018-03-22T04:05:55.016Z,5.69
2018-03-22T04:06:21.163Z,5.73
2018-03-22T04:06:47.293Z,5.69
2018-03-22T04:07:13.431Z,5.76
2018-03-22T04:07:39.568Z,5.76
2018-03-22T04:08:05.727Z,5.73
2018-03-22T04:08:31.857Z,5.73
2018-03-22T04:08:57.995Z,5.72
2018-03-22T04:09:24.128Z,5.75
2018-03-22T04:09:50.269Z,5.69
2018-03-22T04:10:16.401Z,5.64
2018-03-22T04:10:42.540Z,5.73
2018-03-22T04:11:08.683Z,5.69
2018-03-22T04:11:34.817Z,5.76
2018-03-22T04:12:00.977Z,5.71
2018-03-22T04:12:27.112Z,5.75
2018-03-22T04:12:53.248Z,5.71
2018-03-22T04:13:19.387Z,5.69
2018-03-22T04:13:45.522Z,5.79
2018-03-22T04:14:11.654Z,5.64
2018-03-22T04:14:37.788Z,5.72
2018-03-22T04:15:03.924Z,5.79
2018-03-22T04:15:30.052Z,5.72
2018-03-22T04:15:56.189Z,5.69
2018-03-22T04:16:22.340Z,5.66
2018-03-22T04:16:48.478Z,5.61
2018-03-22T04:17:14.609Z,5.65
2018-03-22T04:17:40.749Z,5.65
2018-03-22T04:18:06.888Z,5.69
2018-03-22T04:18:33.018Z,5.66
2018-03-22T04:18:59.150Z,5.69
2018-03-22T04:19:25.283Z,5.68
2018-03-22T04:19:51.421Z,5.71
2018-03-22T04:20:17.577Z,5.66
2018-03-22T04:20:43.712Z,5.75
2018-03-22T04:21:09.852Z,5.62
2018-03-22T04:21:36.033Z,5.73
2018-03-22T04:22:02.129Z,5.68
2018-03-22T04:22:28.270Z,5.66
2018-03-22T04:22:54.406Z,5.72
2018-03-22T04:23:20.535Z,5.69
2018-03-22T04:23:46.673Z,5.68
2018-03-22T04:24:12.821Z,5.64
2018-03-22T04:24:38.998Z,5.65
2018-03-22T04:25:05.141Z,5.68
2018-03-22T04:25:31.270Z,5.65
2018-03-22T04:25:57.398Z,5.65
2018-03-22T04:26:23.534Z,5.73
2018-03-22T04:26:49.756Z,5.62
2018-03-22T04:27:15.839Z,5.61
2018-03-22T04:27:41.969Z,5.61
2018-03-22T04:28:08.106Z,5.57
2018-03-22T04:28:34.236Z,5.66
2018-03-22T04:29:00.377Z,5.68
2018-03-22T04:29:26.512Z,5.64
2018-03-22T04:29:52.648Z,5.64
2018-03-22T04:30:18.785Z,5.56
2018-03-22T04:30:44.923Z,5.64
2018-03-22T04:31:11.057Z,5.56
2018-03-22T04:31:37.201Z,5.56
2018-03-22T04:32:03.331Z,5.53
2018-03-22T04:32:29.471Z,5.54
2018-03-22T04:32:55.612Z,5.56
2018-03-22T04:33:21.743Z,5.59
2018-03-22T04:33:47.872Z,5.57
2018-03-22T04:34:14.015Z,5.47
2018-03-22T04:34:40.178Z,5.57
2018-03-22T04:35:06.310Z,5.47
2018-03-22T04:35:32.452Z,5.5
2018-03-22T04:35:58.586Z,5.5
2018-03-22T04:36:24.722Z,5.5
2018-03-22T04:36:50.856Z,5.41
2018-03-22T04:37:17.046Z,5.32
2018-03-22T04:37:43.202Z,5.3
2018-03-22T04:38:09.338Z,5.39
2018-03-22T04:38:35.475Z,5.41
2018-03-22T04:39:01.610Z,5.33
2018-03-22T04:39:27.745Z,5.46
2018-03-22T04:39:53.880Z,5.36
2018-03-22T04:40:20.042Z,5.43
2018-03-22T04:40:46.178Z,5.46
2018-03-22T04:41:12.320Z,5.36
2018-03-22T04:41:38.452Z,5.38
2018-03-22T04:42:04.590Z,5.48
2018-03-22T04:42:30.723Z,5.44
2018-03-22T04:42:56.877Z,5.57
2018-03-22T04:43:23.013Z,5.57
2018-03-22T04:43:49.148Z,5.61
2018-03-22T04:44:15.284Z,5.53
2018-03-22T04:44:41.423Z,5.54
2018-03-22T04:45:07.562Z,5.48
2018-03-22T04:45:33.688Z,5.59
2018-03-22T04:45:59.831Z,5.53
2018-03-22T04:46:25.965Z,5.54
2018-03-22T04:46:52.097Z,5.56
2018-03-22T04:47:18.234Z,5.54
2018-03-22T04:47:44.378Z,5.54
2018-03-22T04:48:10.532Z,5.54
2018-03-22T04:48:36.670Z,5.57
2018-03-22T04:49:02.805Z,5.51
2018-03-22T04:49:28.944Z,5.56
2018-03-22T04:49:55.077Z,5.57
2018-03-22T04:50:21.208Z,5.56
2018-03-22T04:50:47.347Z,5.56
2018-03-22T04:51:13.477Z,5.51
2018-03-22T04:51:39.622Z,5.53
2018-03-22T04:52:05.754Z,5.57
2018-03-22T04:52:31.891Z,5.59
2018-03-22T04:52:58.054Z,5.59
2018-03-22T04:53:24.220Z,5.59
2018-03-22T04:53:50.350Z,5.54
2018-03-22T04:54:16.507Z,5.62
2018-03-22T04:54:42.642Z,5.65
2018-03-22T04:55:08.787Z,5.66
2018-03-22T04:55:34.937Z,5.66
2018-03-22T04:56:01.088Z,5.65
2018-03-22T04:56:27.219Z,5.62
2018-03-22T04:56:53.356Z,5.69
2018-03-22T04:57:19.494Z,5.66
2018-03-22T04:57:45.633Z,5.71
2018-03-22T04:58:11.776Z,5.62
2018-03-22T04:58:37.934Z,5.69
2018-03-22T04:59:04.072Z,5.69
2018-03-22T04:59:30.198Z,5.62
2018-03-22T04:59:56.340Z,5.66
2018-03-22T05:00:22.501Z,5.64
2018-03-22T05:00:48.641Z,5.64
2018-03-22T05:01:14.819Z,5.66
2018-03-22T05:01:40.981Z,5.64
2018-03-22T05:02:07.093Z,5.56
2018-03-22T05:02:33.251Z,5.53
2018-03-22T05:02:59.388Z,5.53
2018-03-22T05:03:25.530Z,5.54
2018-03-22T05:03:51.663Z,5.51
2018-03-22T05:04:17.826Z,5.54
2018-03-22T05:04:43.955Z,5.57
2018-03-22T05:05:10.115Z,5.53
2018-03-22T05:05:36.243Z,5.54
2018-03-22T05:06:02.412Z,5.53
2018-03-22T05:06:28.550Z,5.54
2018-03-22T05:06:54.732Z,5.48
2018-03-22T05:07:20.823Z,5.5
2018-03-22T05:07:46.955Z,5.41
2018-03-22T05:08:13.091Z,5.36
2018-03-22T05:08:39.230Z,5.5
2018-03-22T05:09:05.358Z,5.53
2018-03-22T05:09:31.497Z,5.38
2018-03-22T05:09:57.635Z,5.36
2018-03-22T05:10:23.768Z,5.41
2018-03-22T05:10:49.927Z,5.39
2018-03-22T05:11:16.064Z,5.43
2018-03-22T05:11:42.191Z,5.38
2018-03-22T05:12:08.330Z,5.41
2018-03-22T05:12:34.490Z,5.41
2018-03-22T05:13:00.617Z,5.39
2018-03-22T05:13:26.756Z,5.41
2018-03-22T05:13:52.890Z,5.32
2018-03-22T05:14:19.029Z,5.36
2018-03-22T05:14:45.171Z,5.33
2018-03-22T05:15:11.306Z,5.36
2018-03-22T05:15:37.437Z,5.39
2018-03-22T05:16:03.579Z,5.38
2018-03-22T05:16:29.740Z,5.38
2018-03-22T05:16:55.874Z,5.41
2018-03-22T05:17:22.014Z,5.39
2018-03-22T05:17:48.146Z,5.36
2018-03-22T05:18:14.285Z,5.32
2018-03-22T05:18:40.438Z,5.39
2018-03-22T05:19:06.553Z,5.43
2018-03-22T05:19:32.689Z,5.44
2018-03-22T05:19:58.850Z,5.41
2018-03-22T05:20:25.016Z,5.39
2018-03-22T05:20:51.152Z,5.38
2018-03-22T05:21:17.314Z,5.44
2018-03-22T05:21:43.452Z,5.41
2018-03-22T05:22:09.587Z,5.32
2018-03-22T05:22:35.716Z,5.43
2018-03-22T05:23:01.856Z,5.46
2018-03-22T05:23:27.991Z,5.43
2018-03-22T05:23:54.124Z,5.43
2018-03-22T05:24:20.262Z,5.46
2018-03-22T05:24:46.398Z,5.39
2018-03-22T05:25:12.531Z,5.41
2018-03-22T05:25:38.660Z,5.35
2018-03-22T05:26:04.802Z,5.36
2018-03-22T05:26:30.934Z,5.39
2018-03-22T05:26:57.068Z,5.33
2018-03-22T05:27:23.206Z,5.29
2018-03-22T05:27:49.348Z,5.32
2018-03-22T05:28:15.480Z,5.32
2018-03-22T05:28:41.615Z,5.32
2018-03-22T05:29:07.747Z,5.36
2018-03-22T05:29:33.898Z,5.36
2018-03-22T05:30:00.030Z,5.39
2018-03-22T05:30:26.166Z,5.43
2018-03-22T05:30:52.305Z,5.36
2018-03-22T05:31:18.438Z,5.3
2018-03-22T05:31:44.577Z,5.32
2018-03-22T05:32:10.724Z,5.32
2018-03-22T05:32:36.864Z,5.3
2018-03-22T05:33:03.025Z,5.33
2018-03-22T05:33:29.157Z,5.33
2018-03-22T05:33:55.314Z,5.3
2018-03-22T05:34:21.445Z,5.33
2018-03-22T05:34:47.577Z,5.32
2018-03-22T05:35:13.742Z,5.29
2018-03-22T05:35:39.876Z,5.3
2018-03-22T05:36:06.013Z,5.28
2018-03-22T05:36:32.148Z,5.32
2018-03-22T05:36:58.280Z,5.3
2018-03-22T05:37:24.412Z,5.26
2018-03-22T05:37:50.554Z,5.3
2018-03-22T05:38:16.714Z,5.3
2018-03-22T05:38:42.856Z,5.29
2018-03-22T05:39:08.987Z,5.26
2018-03-22T05:39:35.116Z,5.3
2018-03-22T05:40:01.252Z,5.25
2018-03-22T05:40:27.393Z,5.29
2018-03-22T05:40:53.537Z,5.29
2018-03-22T05:41:19.672Z,5.26
2018-03-22T05:41:45.807Z,5.29
2018-03-22T05:42:11.965Z,5.26
2018-03-22T05:42:38.100Z,5.23
2018-03-22T05:43:04.241Z,5.28
2018-03-22T05:43:30.379Z,5.32
2018-03-22T05:43:56.546Z,5.18
2018-03-22T05:44:22.758Z,5.26
2018-03-22T05:44:48.846Z,5.26
2018-03-22T05:45:14.982Z,5.29
2018-03-22T05:45:41.115Z,5.32
2018-03-22T05:46:07.276Z,5.25
2018-03-22T05:46:33.428Z,5.28
2018-03-22T05:46:59.572Z,5.18
2018-03-22T05:47:25.703Z,5.23
2018-03-22T05:47:51.843Z,5.14
2018-03-22T05:48:18.008Z,5.21
2018-03-22T05:48:44.146Z,5.2